createdAt,value
2023-01-28T00:03:52.057Z,100.00
2023-01-28T00:08:55.851Z,100.00
2023-01-28T00:13:57.954Z,100.00
2023-01-28T00:18:59.552Z,100.00
2023-01-28T00:24:01.881Z,100.00
2023-01-28T00:29:04.252Z,100.00
2023-01-28T00:34:05.807Z,100.00
2023-01-28T00:39:07.407Z,100.00
2023-01-28T00:44:09.184Z,100.00
2023-01-28T00:49:11.143Z,100.00
2023-01-28T00:54:13.704Z,100.00
2023-01-28T00:59:15.396Z,100.00
2023-01-28T01:04:26.421Z,100.00
2023-01-28T01:09:28.171Z,100.00
2023-01-28T01:14:29.792Z,100.00
2023-01-28T01:19:31.608Z,100.00
2023-01-28T01:24:34.247Z,100.00
2023-01-28T01:29:35.968Z,100.00
2023-01-28T01:34:37.531Z,100.00
2023-01-28T01:39:39.142Z,100.00
2023-01-28T01:45:04.877Z,100.00
2023-01-28T01:50:29.684Z,100.00
2023-01-28T01:55:36.653Z,100.00
2023-01-28T02:00:41.844Z,100.00
2023-01-28T02:05:43.767Z,100.00
2023-01-28T02:10:50.910Z,100.00
2023-01-28T02:15:53.081Z,100.00
2023-01-28T02:21:10.429Z,100.00
2023-01-28T02:26:39.433Z,100.00
2023-01-28T02:31:52.834Z,100.00
2023-01-28T02:37:23.632Z,100.00
2023-01-28T02:42:25.129Z,100.00
2023-01-28T02:47:45.237Z,100.00
2023-01-28T02:53:27.359Z,100.00
2023-01-28T02:58:42.300Z,100.00
2023-01-28T03:04:01.912Z,100.00
2023-01-28T03:09:25.535Z,100.00
2023-01-28T03:14:46.951Z,100.00
2023-01-28T03:20:07.247Z,100.00
2023-01-28T03:25:29.610Z,100.00
2023-01-28T03:30:59.457Z,100.00
2023-01-28T03:36:20.630Z,100.00
2023-01-28T03:41:24.922Z,100.00
2023-01-28T03:46:26.414Z,100.00
2023-01-28T03:51:28.019Z,100.00
2023-01-28T03:56:32.523Z,100.00
2023-01-28T04:01:34.151Z,100.00
2023-01-28T04:06:35.693Z,100.00
2023-01-28T04:11:37.231Z,100.00
2023-01-28T04:16:38.854Z,100.00
2023-01-28T04:21:40.406Z,100.00
2023-01-28T04:26:41.924Z,100.00
2023-01-28T04:31:43.567Z,100.00
2023-01-28T04:36:45.164Z,100.00
2023-01-28T04:41:46.709Z,100.00
2023-01-28T04:46:48.281Z,100.00
2023-01-28T04:51:49.803Z,100.00
2023-01-28T04:56:51.541Z,100.00
2023-01-28T05:01:53.125Z,100.00
2023-01-28T05:06:54.628Z,100.00
2023-01-28T05:11:56.178Z,100.00
2023-01-28T05:16:58.503Z,100.00
2023-01-28T05:22:00.077Z,100.00
2023-01-28T05:27:01.625Z,100.00
2023-01-28T05:32:03.374Z,100.00
2023-01-28T05:37:04.957Z,100.00
2023-01-28T05:42:06.487Z,100.00
2023-01-28T05:47:08.308Z,100.00
2023-01-28T05:52:09.853Z,100.00
2023-01-28T05:57:11.372Z,100.00
2023-01-28T06:02:12.958Z,100.00
2023-01-28T06:07:15.858Z,100.00
2023-01-28T06:12:17.473Z,100.00
2023-01-28T06:17:19.009Z,100.00
2023-01-28T06:22:20.502Z,100.00
2023-01-28T06:27:21.972Z,100.00
2023-01-28T06:32:23.496Z,100.00
2023-01-28T06:37:26.280Z,100.00
2023-01-28T06:42:27.904Z,100.00
2023-01-28T06:47:29.456Z,100.00
2023-01-28T06:52:30.931Z,100.00
2023-01-28T06:57:34.029Z,100.00
2023-01-28T07:02:35.539Z,100.00
2023-01-28T07:07:37.141Z,100.00
2023-01-28T07:12:38.830Z,100.00
2023-01-28T07:17:41.724Z,100.00
2023-01-28T07:22:44.495Z,100.00
2023-01-28T07:27:48.414Z,100.00
2023-01-28T07:32:54.567Z,100.00
2023-01-28T07:37:58.517Z,100.00
2023-01-28T07:43:00.867Z,100.00
2023-01-28T07:48:05.539Z,100.00
2023-01-28T07:53:10.635Z,100.00
2023-01-28T07:58:12.706Z,100.00
2023-01-28T08:03:15.761Z,100.00
2023-01-28T08:08:17.690Z,100.00
2023-01-28T08:13:20.003Z,100.00
2023-01-28T08:18:21.515Z,100.00
2023-01-28T08:23:24.362Z,100.00
2023-01-28T08:28:26.263Z,100.00
2023-01-28T08:33:27.835Z,100.00
2023-01-28T08:38:29.333Z,100.00
2023-01-28T08:43:30.857Z,100.00
2023-01-28T08:48:32.345Z,100.00
2023-01-28T08:53:33.867Z,100.00
2023-01-28T08:58:35.391Z,100.00
2023-01-28T09:03:36.899Z,100.00
2023-01-28T09:08:38.524Z,100.00
2023-01-28T09:13:40.099Z,100.00
2023-01-28T09:18:41.726Z,100.00
2023-01-28T09:23:43.373Z,100.00
2023-01-28T09:28:44.900Z,100.00
2023-01-28T09:33:47.459Z,100.00
2023-01-28T09:38:48.966Z,100.00
2023-01-28T09:43:59.581Z,100.00
2023-01-28T09:49:05.170Z,100.00
2023-01-28T09:54:17.299Z,100.00
2023-01-28T09:59:22.093Z,100.00
2023-01-28T10:04:38.767Z,100.00
2023-01-28T10:10:03.305Z,100.00
2023-01-28T10:15:20.923Z,100.00
2023-01-28T10:20:30.951Z,100.00
2023-01-28T10:25:33.509Z,100.00
2023-01-28T10:30:40.666Z,100.00
2023-01-28T10:35:43.643Z,100.00
2023-01-28T10:40:48.018Z,99.29
2023-01-28T10:45:55.498Z,99.04
2023-01-28T10:51:02.014Z,98.32
2023-01-28T10:56:07.421Z,98.12
2023-01-28T11:01:08.963Z,98.03
2023-01-28T11:06:24.765Z,97.33
2023-01-28T11:11:28.256Z,96.65
2023-01-28T11:16:29.885Z,96.95
2023-01-28T11:21:32.827Z,97.39
2023-01-28T11:26:38.098Z,96.28
2023-01-28T11:31:44.201Z,94.33
2023-01-28T11:36:54.281Z,94.40
2023-01-28T11:42:10.982Z,93.35
2023-01-28T11:47:33.581Z,92.40
2023-01-28T11:53:16.784Z,90.58
2023-01-28T11:58:33.207Z,88.81
2023-01-28T12:03:51.795Z,88.56
2023-01-28T12:09:16.793Z,89.03
2023-01-28T12:14:58.152Z,89.31
2023-01-28T12:20:38.935Z,89.83
2023-01-28T12:26:05.139Z,91.05
2023-01-28T12:31:43.742Z,91.11
2023-01-28T12:37:17.741Z,91.80
2023-01-28T12:42:31.022Z,94.37
2023-01-28T12:47:38.264Z,94.23
2023-01-28T12:52:45.230Z,94.61
2023-01-28T12:57:48.834Z,93.70
2023-01-28T13:03:11.498Z,94.94
2023-01-28T13:08:23.073Z,94.74
2023-01-28T13:13:32.188Z,95.29
2023-01-28T13:18:43.989Z,96.20
2023-01-28T13:23:50.323Z,96.55
2023-01-28T13:28:53.586Z,96.99
2023-01-28T13:33:55.015Z,96.07
2023-01-28T13:39:05.155Z,97.06
2023-01-28T13:44:27.486Z,97.19
2023-01-28T13:49:44.573Z,95.96
2023-01-28T13:54:55.136Z,95.40
2023-01-28T14:00:11.504Z,94.88
2023-01-28T14:05:36.390Z,94.29
2023-01-28T14:10:55.491Z,94.03
2023-01-28T14:15:59.206Z,95.34
2023-01-28T14:21:03.369Z,96.48
2023-01-28T14:26:10.929Z,98.01
2023-01-28T14:31:23.356Z,98.34
2023-01-28T14:36:25.322Z,98.77
2023-01-28T14:41:28.532Z,99.73
2023-01-28T14:46:32.858Z,100.00
2023-01-28T14:52:19.533Z,100.00
2023-01-28T14:57:33.820Z,100.00
2023-01-28T15:02:35.409Z,100.00
2023-01-28T15:07:37.125Z,100.00
2023-01-28T15:12:41.345Z,100.00
2023-01-28T15:17:42.917Z,100.00
2023-01-28T15:22:45.014Z,100.00
2023-01-28T15:27:47.555Z,100.00
2023-01-28T15:33:22.177Z,100.00
2023-01-28T15:38:26.699Z,100.00
2023-01-28T15:43:35.783Z,100.00
2023-01-28T15:48:41.966Z,100.00
2023-01-28T15:53:46.683Z,100.00
2023-01-28T15:58:48.225Z,100.00
2023-01-28T16:04:06.942Z,100.00
2023-01-28T16:09:23.636Z,100.00
2023-01-28T16:14:28.054Z,100.00
2023-01-28T16:19:38.721Z,100.00
2023-01-28T16:24:49.546Z,100.00
2023-01-28T16:29:51.216Z,100.00
2023-01-28T16:34:52.753Z,100.00
2023-01-28T16:39:54.211Z,100.00
2023-01-28T16:44:58.806Z,100.00
2023-01-28T16:50:00.401Z,100.00
2023-01-28T16:55:03.180Z,100.00
2023-01-28T17:00:06.398Z,100.00
2023-01-28T17:05:08.338Z,100.00
2023-01-28T17:10:10.682Z,100.00
2023-01-28T17:15:12.211Z,100.00
2023-01-28T17:20:13.757Z,100.00
2023-01-28T17:25:15.678Z,100.00
2023-01-28T17:30:20.852Z,100.00
2023-01-28T17:35:22.345Z,100.00
2023-01-28T17:40:24.277Z,100.00
2023-01-28T17:45:25.864Z,100.00
2023-01-28T17:50:27.523Z,100.00
2023-01-28T17:55:29.603Z,100.00
2023-01-28T18:00:32.122Z,100.00
2023-01-28T18:05:33.606Z,100.00
2023-01-28T18:10:35.590Z,100.00
2023-01-28T18:15:37.058Z,100.00
2023-01-28T18:20:38.614Z,100.00
2023-01-28T18:25:40.547Z,100.00
2023-01-28T18:30:42.050Z,100.00
2023-01-28T18:35:44.536Z,100.00
2023-01-28T18:40:46.922Z,100.00
2023-01-28T18:45:49.448Z,100.00
2023-01-28T18:50:52.462Z,100.00
2023-01-28T18:55:53.959Z,100.00
2023-01-28T19:00:55.554Z,100.00
2023-01-28T19:05:57.134Z,100.00
2023-01-28T19:10:58.678Z,100.00
2023-01-28T19:16:04.406Z,100.00
2023-01-28T19:21:06.465Z,100.00
2023-01-28T19:26:08.030Z,100.00
2023-01-28T19:31:09.941Z,100.00
2023-01-28T19:36:11.939Z,100.00
2023-01-28T19:41:16.151Z,100.00
2023-01-28T19:46:18.469Z,100.00
2023-01-28T19:51:20.785Z,100.00
2023-01-28T19:56:24.790Z,100.00
2023-01-28T20:01:30.196Z,100.00
2023-01-28T20:06:33.689Z,100.00
2023-01-28T20:11:35.799Z,100.00
2023-01-28T20:16:37.609Z,100.00
2023-01-28T20:21:39.226Z,100.00
2023-01-28T20:26:43.019Z,100.00
2023-01-28T20:31:44.712Z,100.00
2023-01-28T20:36:46.300Z,100.00
2023-01-28T20:41:47.983Z,100.00
2023-01-28T20:46:49.509Z,100.00
2023-01-28T20:51:51.001Z,100.00
2023-01-28T20:56:53.022Z,100.00
2023-01-28T21:01:54.613Z,100.00
2023-01-28T21:06:56.169Z,100.00
2023-01-28T21:11:58.740Z,100.00
2023-01-28T21:17:00.330Z,100.00
2023-01-28T21:22:01.966Z,100.00
2023-01-28T21:27:03.569Z,100.00
2023-01-28T21:32:05.099Z,100.00
2023-01-28T21:37:06.603Z,100.00
2023-01-28T21:42:08.162Z,100.00
2023-01-28T21:47:09.818Z,100.00
2023-01-28T21:52:12.493Z,100.00
2023-01-28T21:57:14.032Z,100.00
2023-01-28T22:02:15.673Z,100.00
2023-01-28T22:07:18.965Z,100.00
2023-01-28T22:12:22.504Z,100.00
2023-01-28T22:17:24.969Z,100.00
2023-01-28T22:22:26.568Z,100.00
2023-01-28T22:27:28.930Z,100.00
2023-01-28T22:32:30.519Z,100.00
2023-01-28T22:37:32.044Z,100.00
2023-01-28T22:42:33.511Z,100.00
2023-01-28T22:47:34.990Z,100.00
2023-01-28T22:52:36.598Z,100.00
2023-01-28T22:57:38.100Z,100.00
2023-01-28T23:02:39.710Z,100.00
2023-01-28T23:07:41.232Z,100.00
2023-01-28T23:12:42.874Z,100.00
2023-01-28T23:18:02.780Z,100.00
2023-01-28T23:23:22.865Z,100.00
2023-01-28T23:28:24.359Z,100.00
2023-01-28T23:33:26.363Z,100.00
2023-01-28T23:38:27.886Z,100.00
2023-01-28T23:43:29.372Z,100.00
2023-01-28T23:48:30.858Z,100.00
2023-01-28T23:53:32.430Z,100.00
2023-01-28T23:58:43.068Z,100.00
